AirNav   TITAN Aviation Fuels
 
 845 users online  

OL20 Whitehorn Cove Airport
Wagoner, Oklahoma, USA

GOING TO WAGONER?


FAA INFORMATION EFFECTIVE 04 NOVEMBER 2021

Location

FAA Identifier: OL20
Lat/Long: 35-59-50.3580N 095-15-31.8580W
35-59.839300N 095-15.530967W
35.9973217,-95.2588494
(estimated)
Elevation: 568 ft. / 173.1 m (surveyed)
Variation: 06E (1985)
From city: 6 miles NE of WAGONER, OK
Time zone: UTC -5 (UTC -6 during Standard Time)
Zip code: 74467

Airport Operations

Airport use: Private use. Permission required prior to landing
Activation date: 11/1987
Control tower: no
ARTCC: KANSAS CITY CENTER
FSS: MC ALESTER FLIGHT SERVICE STATION
Attendance: UNATNDD
Wind indicator: yes
Segmented circle: no

Airport Communications

WX AWOS-3P at TQH (13 nm E): 118.425 (918-453-2729)
WX AWOS-3PT at H71 (14 nm N): 120.1 (918-476-0517)

Nearby radio navigation aids

VOR radial/distance  VOR name  Freq  Var
TULr107/28.3TULSA VORTAC114.4008E
OKMr050/34.7OKMULGEE VOR/DME114.9008E

 
NDB name  Hdg/Dist  Freq  Var  ID
SILOAM SPRINGS249/39.128404ESLG ... .-.. --.

Airport Services

Runway Information

Runway 17/35

Dimensions: 3000 x 100 ft. / 914 x 30 m
Surface: turf
RUNWAY 17  RUNWAY 35
Traffic pattern: leftleft
Obstructions: 20 ft. trees, 10 ft. from runway20 ft. trees, 10 ft. from runway

Runway 13/31

Dimensions: 2000 x 100 ft. / 610 x 30 m
Surface: turf
RUNWAY 13  RUNWAY 31
Traffic pattern: leftleft
Obstructions: 20 ft. trees, 10 ft. from runway20 ft. trees, 10 ft. from runway

Airport Ownership and Management from official FAA records

Ownership: Privately-owned
Owner: DEMK, LLC
34561 E 700 RD
WAGONER, OK 74467
Phone 918-462-3311
Manager: MARK PFEIFER
34561 E 700 RD
WAGONER, OK 74467
Phone 918-462-3311

Additional Remarks

FOR CD CTC TULSA APCH AT 918-831-6714/6720.

Instrument Procedures

There are no published instrument procedures at OL20.

Some nearby airports with instrument procedures:

H68 - Hefner-Easley Airport (4 nm SW)
KTQH - Tahlequah Municipal Airport (13 nm E)
H71 - Mid-America Industrial Airport (14 nm N)
KGCM - Claremore Regional Airport (21 nm NW)
KMKO - Muskogee-Davis Regional Airport (21 nm S)
 
Loc | Ops | Rwys | IFR | FBO | Links
Com | Nav | Svcs | Stats | Notes
Area around OL20 (Whitehorn Cove Airport)
 
Road maps at: MapQuest Bing Google
 
Aerial photo
WARNING: Photo may not be current or correct
Aerial photo of OL20 (Whitehorn Cove Airport)
Photo by Mike Fagan
Photo taken 14-Nov-2010
looking south.

Do you have a better or more recent aerial photo of Whitehorn Cove Airport that you would like to share? If so, please send us your photo.

 
Sectional chart

 
Airport distance calculator
Flying to Whitehorn Cove Airport? Find the distance to fly.

From to OL20

Sunrise and sunset
Times for 30-Nov-2021
 Local
(UTC-6)
 Zulu
(UTC)
Morning civil twilight06:4512:45
Sunrise07:1313:13
Sunset17:0623:06
Evening civil twilight17:3423:34

Current date and time
Zulu (UTC)  01-Dec-2021 05:04:35
Local (UTC-6)  30-Nov-2021 23:04:35
 
METAR
KTQH 
13nm E 
010455Z AUTO 00000KT 10SM CLR 08/04 A3002 RMK AO2
KH71 
14nm N 
010455Z AUTO 18007KT 10SM CLR 15/08 A2998 RMK AO2
KGCM 
21nm NW 
010435Z AUTO 00000KT 10SM CLR 11/05 A3000 RMK AO2
KMKO 
21nm S 
010453Z AUTO 15003KT 10SM CLR 11/07 A3001 RMK AO2 SLP159 T01110067
TAF
KTUL 
33nm W 
301720Z 3018/0118 12009KT P6SM SCT250 FM010100 VRB04KT P6SM SKC FM011500 28006KT P6SM SKC
KRVS 
35nm W 
301720Z 3018/0118 12006KT P6SM SKC FM010100 VRB03KT P6SM SKC FM011500 28005KT P6SM SKC
NOTAMs
Click for the latest NOTAMs
NOTAMs are issued by the DoD/FAA and will open in a separate window not controlled by AirNav.

 

 
 

Where to Eat: Catering, Restaurants, Food shops

  
 Business Name 
 
 Contact 
 
 Services / Description 
 
Distance
 
Comments
  
Whitehorn Cove Restaurant 918-462-7411
no information available

If you are affiliated with Whitehorn Cove Restaurant and would like to show here your services, contact info, web link, logo, and more, click here
1 mile  
   write
 

Would you like to see your business listed on this page?

 If your business provides an interesting product or service to pilots, flight crews, aircraft, or users of the Whitehorn Cove Airport, you should consider listing it here.  To start the listing process, click on the button below
 
Add a business
 

Other Pages about Whitehorn Cove Airport

Update a link
 
Copyright © AirNav, LLC. All rights reserved. Privacy Policy  Contact